Time;durP1;ratioP1;P1;durP2;ratioP2;P2;SDS_P1;SDS_P2;PMS_P1;PMS_P2;Temp;Humidity;BMP_temperature;BMP_pressure;BME280_temperature;BME280_humidity;BME280_pressure;Samples;Min_cycle;Max_cycle;Signal;HPM_P1;HPM_P2
2022/09/24 00:01:46;;;;;;;1.25;1.15;;;;;;;6.74;74.63;99425.22;4453660;32;33781;-81
2022/09/24 00:04:14;;;;;;;0.80;0.80;;;;;;;6.66;74.75;99431.22;4453690;32;33407;-81
2022/09/24 00:06:44;;;;;;;0.55;0.55;;;;;;;6.49;75.44;99431.06;4454799;32;33951;-81
2022/09/24 00:09:14;;;;;;;0.60;0.60;;;;;;;6.63;75.44;99432.88;4454745;32;35087;-80
2022/09/24 00:11:44;;;;;;;0.60;0.60;;;;;;;6.73;74.45;99433.84;4454823;32;34322;-81
2022/09/24 00:14:12;;;;;;;0.60;0.60;;;;;;;6.64;74.56;99426.88;4454684;32;34220;-81
2022/09/24 00:16:41;;;;;;;0.60;0.60;;;;;;;6.49;74.90;99424.16;4455012;32;34622;-81
2022/09/24 00:19:11;;;;;;;0.80;0.80;;;;;;;6.55;75.04;99429.41;4453299;32;34311;-81
2022/09/24 00:21:39;;;;;;;0.60;0.60;;;;;;;6.54;74.81;99422.47;4441153;32;33876;-81
2022/09/24 00:24:09;;;;;;;0.60;0.60;;;;;;;6.47;75.04;99428.47;4454588;32;33987;-81
2022/09/24 00:26:49;;;;;;;0.80;0.80;;;;;;;6.51;74.94;99429.34;4454758;32;33827;-81
2022/09/24 00:29:22;;;;;;;0.80;0.80;;;;;;;6.39;75.38;99433.59;4454680;32;35947;-81
2022/09/24 00:31:52;;;;;;;0.60;0.60;;;;;;;6.31;75.55;99436.97;4453438;32;34473;-81
2022/09/24 00:34:20;;;;;;;0.50;0.50;;;;;;;6.37;75.67;99431.84;4453394;32;33409;-80
2022/09/24 00:36:48;;;;;;;0.50;0.50;;;;;;;6.26;75.98;99432.66;4453391;32;34055;-81
2022/09/24 00:39:16;;;;;;;1.33;0.93;;;;;;;5.83;78.54;99426.19;4454493;32;34834;-82
2022/09/24 00:41:47;;;;;;;1.12;1.12;;;;;;;6.16;77.26;99436.00;4454324;32;35223;-81
2022/09/24 00:44:41;;;;;;;0.60;0.60;;;;;;;6.45;75.59;99427.59;4453261;32;33612;-81
2022/09/24 00:47:31;;;;;;;0.60;0.60;;;;;;;6.55;74.24;99424.22;4454266;32;34116;-81
2022/09/24 00:50:23;;;;;;;0.60;0.60;;;;;;;6.28;74.69;99427.47;4453327;32;35136;-80
2022/09/24 00:52:58;;;;;;;0.60;0.60;;;;;;;6.10;76.23;99419.56;4444286;32;34545;-81
2022/09/24 00:55:26;;;;;;;0.90;0.90;;;;;;;6.00;76.72;99413.44;4454367;32;34237;-81
2022/09/24 00:57:59;;;;;;;0.60;0.60;;;;;;;6.33;75.39;99417.16;4454278;32;33907;-81
2022/09/24 01:00:29;;;;;;;0.60;0.60;;;;;;;5.63;78.72;99418.22;4454274;32;35460;-81
2022/09/24 01:03:03;;;;;;;0.80;0.80;;;;;;;5.44;79.64;99407.69;4452903;32;35181;-80
2022/09/24 01:05:31;;;;;;;0.90;0.90;;;;;;;6.35;75.59;99405.97;4454271;32;33445;-81
2022/09/24 01:07:59;;;;;;;0.68;0.68;;;;;;;6.11;76.82;99406.66;4454104;32;33770;-81
2022/09/24 01:10:49;;;;;;;0.70;0.70;;;;;;;6.51;74.65;99401.78;4452851;32;35143;-80
2022/09/24 01:13:30;;;;;;;0.60;0.60;;;;;;;6.40;74.58;99404.28;4454171;32;34458;-80
2022/09/24 01:16:29;;;;;;;0.60;0.60;;;;;;;6.38;75.18;99402.56;4454043;32;33625;-80
2022/09/24 01:19:17;;;;;;;0.60;0.60;;;;;;;6.26;75.43;99400.72;4454002;32;33933;-81
2022/09/24 01:21:49;;;;;;;;;;;;;;;6.27;75.43;99394.72;4453180;32;35019;-81
2022/09/24 01:24:54;;;;;;;0.70;0.70;;;;;;;6.16;76.04;99389.47;4452821;32;35485;-81
2022/09/24 01:27:30;;;;;;;0.68;0.68;;;;;;;6.20;75.23;99386.03;4453890;32;33528;-81
2022/09/24 01:30:05;;;;;;;0.70;0.70;;;;;;;5.93;77.71;99390.94;4453916;32;34060;-80
2022/09/24 01:32:54;;;;;;;0.60;0.60;;;;;;;5.35;78.22;99386.94;4453787;32;35907;-81
2022/09/24 01:35:33;;;;;;;0.85;0.85;;;;;;;5.99;77.11;99386.72;4453762;32;34703;-81
2022/09/24 01:38:16;;;;;;;0.60;0.60;;;;;;;6.18;75.28;99386.91;4453763;32;33186;-81
2022/09/24 01:40:45;;;;;;;0.60;0.60;;;;;;;6.18;75.18;99379.16;4452779;32;34664;-81
2022/09/24 01:43:15;;;;;;;0.75;0.75;;;;;;;6.17;74.90;99380.84;4453616;32;35140;-80
2022/09/24 01:45:43;;;;;;;0.77;0.77;;;;;;;6.05;75.54;99380.75;4453127;32;34387;-81
2022/09/24 01:48:11;;;;;;;0.68;0.68;;;;;;;5.25;79.73;99380.81;4454406;32;33329;-80
2022/09/24 01:50:44;;;;;;;0.70;0.70;;;;;;;6.11;75.87;99375.63;4454598;32;34607;-80
2022/09/24 01:53:21;;;;;;;0.60;0.60;;;;;;;4.86;82.14;99373.47;4441726;32;33462;-81
2022/09/24 01:55:53;;;;;;;0.98;0.98;;;;;;;5.62;80.32;99380.34;4455673;32;34383;-81
2022/09/24 01:58:45;;;;;;;0.80;0.80;;;;;;;6.18;76.97;99372.25;4454571;32;33500;-81
2022/09/24 02:01:17;;;;;;;0.60;0.60;;;;;;;6.32;75.23;99374.03;4454846;32;34784;-81
2022/09/24 02:03:50;;;;;;;1.33;1.23;;;;;;;6.20;75.19;99375.69;4454343;32;35092;-81
2022/09/24 02:06:24;;;;;;;0.60;0.60;;;;;;;6.02;76.74;99376.44;4454549;32;34495;-81
2022/09/24 02:08:55;;;;;;;0.60;0.60;;;;;;;6.03;76.89;99378.13;4454462;32;34352;-80
2022/09/24 02:11:23;;;;;;;0.95;0.95;;;;;;;5.37;80.22;99374.91;4455655;32;34687;-81
2022/09/24 02:14:07;;;;;;;0.60;0.60;;;;;;;6.14;76.99;99379.94;4454433;32;36114;-80
2022/09/24 02:16:39;;;;;;;0.60;0.60;;;;;;;6.40;75.43;99374.97;4454428;32;35256;-81
2022/09/24 02:19:10;;;;;;;0.60;0.60;;;;;;;6.50;74.35;99379.34;4454452;32;33438;-81
2022/09/24 02:21:40;;;;;;;0.70;0.70;;;;;;;6.36;74.18;99375.81;4454415;32;33873;-81
2022/09/24 02:24:13;;;;;;;0.60;0.60;;;;;;;5.67;77.54;99384.69;4454199;32;34971;-81
2022/09/24 02:26:41;;;;;;;0.60;0.60;;;;;;;6.20;75.66;99380.88;4454204;32;35451;-80
2022/09/24 02:29:09;;;;;;;1.42;1.40;;;;;;;6.40;74.99;99380.16;4454276;32;33699;-80
2022/09/24 02:31:42;;;;;;;0.70;0.70;;;;;;;6.31;75.53;99382.69;4454243;32;33845;-81
2022/09/24 02:34:20;;;;;;;0.50;0.50;;;;;;;6.46;74.11;99393.13;4441606;32;35024;-80
2022/09/24 02:36:57;;;;;;;0.50;0.50;;;;;;;6.35;74.38;99384.41;4454365;32;34376;-81
2022/09/24 02:39:26;;;;;;;0.60;0.60;;;;;;;6.15;74.47;99385.13;4454284;32;33147;-81
2022/09/24 02:41:53;;;;;;;0.90;0.90;;;;;;;6.03;75.13;99383.31;4455374;32;34606;-81
2022/09/24 02:44:21;;;;;;;0.60;0.60;;;;;;;5.28;78.45;99374.81;4455231;32;35971;-80
2022/09/24 02:46:49;;;;;;;0.60;0.60;;;;;;;4.90;81.99;99385.53;4455121;32;34604;-80
2022/09/24 02:49:17;;;;;;;0.60;0.60;;;;;;;5.89;78.00;99382.31;4455368;32;33539;-81
2022/09/24 02:51:45;;;;;;;0.50;0.50;;;;;;;6.29;75.69;99380.06;4455420;32;34821;-81
2022/09/24 02:54:13;;;;;;;0.93;0.93;;;;;;;5.87;76.47;99377.09;4455247;32;35235;-81
2022/09/24 02:56:40;;;;;;;0.60;0.60;;;;;;;6.16;75.23;99384.28;4453706;32;34591;-80
2022/09/24 02:59:09;;;;;;;0.57;0.57;;;;;;;5.95;75.18;99384.06;4454901;32;33564;-81
2022/09/24 03:01:37;;;;;;;0.60;0.60;;;;;;;5.74;77.67;99380.47;4455212;32;34021;-81
2022/09/24 03:04:04;;;;;;;1.95;1.85;;;;;;;5.97;75.68;99377.25;4453919;32;34646;-80
2022/09/24 03:06:32;;;;;;;0.50;0.50;;;;;;;5.48;78.03;99382.78;4455190;32;34585;-80
2022/09/24 03:09:02;;;;;;;0.60;0.60;;;;;;;5.34;79.88;99381.75;4455206;32;33484;-80
2022/09/24 03:11:31;;;;;;;0.55;0.55;;;;;;;5.50;77.92;99375.91;4455189;32;33580;-80
2022/09/24 03:14:00;;;;;;;0.73;0.73;;;;;;;5.71;78.65;99367.50;4455380;32;37106;-81
2022/09/24 03:16:28;;;;;;;0.57;0.57;;;;;;;5.92;76.18;99359.06;4453956;32;34354;-81
2022/09/24 03:18:56;;;;;;;0.60;0.60;;;;;;;5.41;80.08;99356.00;4455159;32;33622;-81
2022/09/24 03:21:24;;;;;;;0.60;0.60;;;;;;;6.30;76.98;99357.66;4453955;32;34715;-81
2022/09/24 03:23:51;;;;;;;0.62;0.62;;;;;;;6.49;75.42;99359.50;4454957;32;34937;-81
2022/09/24 03:26:19;;;;;;;0.60;0.60;;;;;;;5.98;77.48;99353.13;4454053;32;35342;-81
2022/09/24 03:28:47;;;;;;;0.50;0.50;;;;;;;5.97;76.53;99356.56;4455113;32;33202;-81
2022/09/24 03:31:15;;;;;;;1.80;1.25;;;;;;;6.23;75.21;99349.88;4454999;32;34077;-81
2022/09/24 03:33:45;;;;;;;0.60;0.60;;;;;;;6.10;76.46;99340.28;4454966;32;35004;-81
2022/09/24 03:36:22;;;;;;;0.60;0.60;;;;;;;6.23;76.01;99347.28;4453907;32;34419;-81
2022/09/24 03:38:55;;;;;;;0.68;0.68;;;;;;;6.39;75.24;99349.97;4455101;32;33386;-81
2022/09/24 03:41:27;;;;;;;0.62;0.62;;;;;;;6.39;74.69;99347.41;4453860;32;34003;-80
2022/09/24 03:43:55;;;;;;;0.70;0.70;;;;;;;6.22;75.37;99344.69;4454963;32;35086;-81
2022/09/24 03:46:28;;;;;;;0.60;0.60;;;;;;;6.40;74.24;99347.38;4454747;32;34491;-81
2022/09/24 03:48:59;;;;;;;0.50;0.50;;;;;;;6.17;75.58;99336.03;4454976;32;33323;-81
2022/09/24 03:51:27;;;;;;;0.68;0.68;;;;;;;6.38;74.74;99338.75;4453795;32;33200;-81
2022/09/24 03:53:55;;;;;;;0.70;0.70;;;;;;;6.17;75.34;99339.47;4454901;32;34698;-81
2022/09/24 03:56:23;;;;;;;0.52;0.52;;;;;;;6.45;73.98;99337.94;4454811;32;34586;-80
2022/09/24 03:58:51;;;;;;;0.70;0.70;;;;;;;6.41;73.41;99337.91;4454871;32;34103;-80
2022/09/24 04:01:19;;;;;;;0.60;0.60;;;;;;;6.18;74.29;99341.22;4454861;32;34610;-81
2022/09/24 04:03:49;;;;;;;0.70;0.70;;;;;;;6.06;75.04;99341.12;4455071;32;35104;-81
2022/09/24 04:06:17;;;;;;;0.50;0.50;;;;;;;5.70;76.92;99339.94;4440848;32;34558;-81
2022/09/24 04:08:52;;;;;;;0.50;0.50;;;;;;;5.82;77.63;99332.31;4452359;32;33658;-78
2022/09/24 04:11:20;;;;;;;0.60;0.60;;;;;;;6.21;75.57;99335.19;4454067;32;34514;-79
2022/09/24 04:13:48;;;;;;;0.68;0.68;;;;;;;6.07;75.96;99337.66;4454588;32;35870;-80
2022/09/24 04:16:16;;;;;;;1.33;0.98;;;;;;;6.02;75.93;99335.06;4454568;32;34404;-79
2022/09/24 04:18:47;;;;;;;0.60;0.60;;;;;;;6.09;75.50;99338.56;4454608;32;34224;-80
2022/09/24 04:21:15;;;;;;;0.50;0.50;;;;;;;6.06;75.19;99335.97;4454566;32;34663;-79
2022/09/24 04:23:43;;;;;;;1.02;1.02;;;;;;;6.01;76.19;99342.81;4454620;32;35070;-79
2022/09/24 04:26:11;;;;;;;0.60;0.60;;;;;;;5.65;78.34;99339.03;4453180;32;34367;-80
2022/09/24 04:28:38;;;;;;;0.50;0.50;;;;;;;5.73;76.73;99342.53;4454830;32;33094;-81
2022/09/24 04:31:06;;;;;;;0.70;0.70;;;;;;;5.44;78.78;99340.56;4453606;32;34049;-83
2022/09/24 04:33:34;;;;;;;0.50;0.50;;;;;;;5.95;76.91;99347.88;4454489;32;35110;-81
2022/09/24 04:36:02;;;;;;;0.60;0.60;;;;;;;6.24;74.06;99336.06;4454525;32;34509;-80
2022/09/24 04:38:30;;;;;;;0.60;0.60;;;;;;;5.62;76.91;99344.16;4454507;32;33477;-84
2022/09/24 04:41:08;;;;;;;0.65;0.65;;;;;;;5.32;79.25;99337.84;4453287;32;33835;-84
2022/09/24 04:43:36;;;;;;;1.35;1.30;;;;;;;5.93;79.11;99334.09;4454399;32;35177;-86
2022/09/24 04:46:04;;;;;;;0.60;0.60;;;;;;;6.31;76.55;99341.28;4449892;32;146060;-81
2022/09/24 04:48:33;;;;;;;0.55;0.55;;;;;;;6.17;76.72;99347.22;4454529;32;34314;-81
2022/09/24 04:51:02;;;;;;;0.70;0.70;;;;;;;6.34;75.81;99346.50;4454560;32;34774;-83
2022/09/24 04:53:29;;;;;;;0.60;0.60;;;;;;;6.36;75.64;99344.78;4454307;32;35869;-82
2022/09/24 04:55:58;;;;;;;0.60;0.60;;;;;;;6.33;75.34;99343.03;4454270;32;34400;-84
2022/09/24 04:58:27;;;;;;;1.33;0.90;;;;;;;6.32;77.21;99343.00;4454318;32;33706;-82
2022/09/24 05:00:54;;;;;;;0.70;0.70;;;;;;;6.18;78.72;99345.53;4454293;32;33554;-81
2022/09/24 05:03:22;;;;;;;0.77;0.77;;;;;;;6.23;77.83;99342.12;4454070;32;35024;-81
2022/09/24 05:05:50;;;;;;;0.60;0.60;;;;;;;6.76;77.09;99335.50;4452958;32;34696;-81
2022/09/24 05:08:18;;;;;;;0.50;0.50;;;;;;;6.01;82.04;99335.06;4454141;32;34228;-82
2022/09/24 05:10:45;;;;;;;0.60;0.60;;;;;;;5.96;83.38;99322.09;4454149;32;34729;-82
2022/09/24 05:13:13;;;;;;;0.90;0.90;;;;;;;6.59;80.58;99329.41;4454238;32;35908;-81
2022/09/24 05:15:41;;;;;;;1.05;1.05;;;;;;;6.82;82.10;99330.34;4452957;32;33748;-81
2022/09/24 05:18:09;;;;;;;0.68;0.68;;;;;;;7.00;82.60;99333.88;4453940;32;34296;-82
2022/09/24 05:20:37;;;;;;;0.52;0.52;;;;;;;7.07;82.07;99335.63;4454526;32;33566;-82
2022/09/24 05:23:06;;;;;;;0.40;0.40;;;;;;;6.95;83.80;99336.47;4455850;32;35038;-82
2022/09/24 05:27:07;;;;;;;0.50;0.50;;;;;;;7.78;83.48;99331.44;4455794;32;34471;-82
2022/09/24 05:28:21;;;;;;;3.55;2.47;;;;;;;8.62;80.04;99336.56;4455902;32;34301;-81
2022/09/24 05:30:49;;;;;;;0.50;0.50;;;;;;;9.24;78.56;99322.44;4455890;32;34814;-82
2022/09/24 05:33:17;;;;;;;1.45;1.37;;;;;;;9.26;76.50;99328.47;4454664;32;35826;-82
2022/09/24 05:35:52;;;;;;;0.50;0.50;;;;;;;9.80;74.52;99332.47;4455795;32;35306;-82
2022/09/24 05:38:20;;;;;;;0.75;0.75;;;;;;;10.15;74.61;99328.72;4455065;32;33454;-82
2022/09/24 05:40:48;;;;;;;2.25;2.08;;;;;;;10.18;73.75;99329.56;4439528;32;34460;-80
2022/09/24 05:43:20;;;;;;;0.55;0.55;;;;;;;10.46;74.41;99328.44;4455480;32;34990;-82
2022/09/24 05:45:49;;;;;;;0.50;0.50;;;;;;;10.69;71.86;99328.19;4455480;32;35231;-82
2022/09/24 05:48:17;;;;;;;1.37;1.27;;;;;;;10.81;72.16;99331.50;4455315;32;33605;-82
2022/09/24 05:50:45;;;;;;;2.47;2.17;;;;;;;11.20;71.51;99329.25;4455385;32;34112;-82
2022/09/24 05:53:13;;;;;;;3.45;1.83;;;;;;;11.02;72.40;99339.09;4455534;32;35131;-81
2022/09/24 05:55:42;;;;;;;6.47;3.58;;;;;;;11.49;71.31;99340.19;4455418;32;34312;-82
2022/09/24 05:58:10;;;;;;;9.75;7.40;;;;;;;11.07;73.32;99345.97;4454551;32;34286;-82
2022/09/24 06:00:38;;;;;;;3.97;3.67;;;;;;;11.51;72.59;99348.88;4454270;32;33906;-81
2022/09/24 06:03:13;;;;;;;21.80;6.82;;;;;;;11.88;71.61;99348.31;4455427;32;35142;-82
2022/09/24 06:05:48;;;;;;;2.78;2.62;;;;;;;11.64;72.36;99349.53;4455363;32;34531;-82
2022/09/24 06:08:18;;;;;;;3.62;3.33;;;;;;;11.58;71.99;99348.75;4454178;32;33943;-82
2022/09/24 06:10:46;;;;;;;2.65;2.05;;;;;;;12.59;69.46;99345.34;4455346;32;33993;-82
2022/09/24 06:13:17;;;;;;;0.80;0.80;;;;;;;12.86;66.60;99348.31;4455168;32;35058;-82
2022/09/24 06:15:45;;;;;;;1.58;1.50;;;;;;;12.42;69.30;99348.25;4441741;32;33665;-80
2022/09/24 06:18:15;;;;;;;3.35;3.08;;;;;;;13.06;66.44;99346.16;4438063;32;32967;-84
2022/09/24 06:20:43;;;;;;;0.65;0.65;;;;;;;13.17;65.71;99345.09;4438966;32;33153;-83
2022/09/24 06:23:11;;;;;;;0.77;0.77;;;;;;;13.79;64.75;99355.91;4438963;32;36042;-82
2022/09/24 06:25:39;;;;;;;1.65;1.55;;;;;;;14.25;64.65;99353.06;4439585;32;35097;-82
2022/09/24 06:28:06;;;;;;;4.47;2.28;;;;;;;13.91;62.86;99351.28;4438775;32;33354;-83
2022/09/24 06:30:37;;;;;;;2.05;1.60;;;;;;;15.05;62.73;99357.00;4439990;32;34341;-83
2022/09/24 06:33:07;;;;;;;1.33;1.23;;;;;;;15.21;59.62;99362.69;4439072;32;34227;-83
2022/09/24 06:35:45;;;;;;;1.27;1.17;;;;;;;14.86;58.94;99361.94;4438769;32;33762;-84
2022/09/24 06:38:15;;;;;;;0.52;0.52;;;;;;;15.60;58.76;99354.53;4438829;32;33693;-83
2022/09/24 06:40:44;;;;;;;0.60;0.60;;;;;;;16.21;56.30;99358.72;4451452;32;33195;-83
2022/09/24 06:43:12;;;;;;;0.62;0.62;;;;;;;16.22;54.91;99352.59;4438743;32;35128;-85
2022/09/24 06:45:41;;;;;;;1.92;1.83;;;;;;;15.54;58.46;99346.84;4439478;32;34583;-83
2022/09/24 06:48:11;;;;;;;0.40;0.40;;;;;;;15.81;59.84;99352.16;4450921;32;33024;-83
2022/09/24 06:50:42;;;;;;;3.22;2.92;;;;;;;15.94;55.95;99350.84;4438335;32;35035;-83
2022/09/24 06:53:11;;;;;;;0.95;0.95;;;;;;;15.81;56.76;99354.78;4439681;32;35992;-83
2022/09/24 06:55:39;;;;;;;1.65;1.60;;;;;;;15.86;56.29;99355.50;4439580;32;34135;-86
2022/09/24 06:58:11;;;;;;;1.33;1.23;;;;;;;15.66;56.77;99359.56;4439679;32;33431;-83
2022/09/24 07:00:40;;;;;;;1.30;1.20;;;;;;;15.33;58.13;99357.06;4451591;32;34062;-83
2022/09/24 07:03:13;;;;;;;1.85;1.75;;;;;;;14.65;60.54;99358.16;4451323;32;35050;-82
2022/09/24 07:05:41;;;;;;;1.42;1.33;;;;;;;15.63;57.37;99359.66;4451141;32;34493;-81
2022/09/24 07:08:10;;;;;;;1.58;1.48;;;;;;;14.34;61.24;99373.78;4439789;32;33421;-83
2022/09/24 07:10:42;;;;;;;1.40;1.30;;;;;;;14.62;63.45;99373.09;4438570;32;34038;-84
2022/09/24 07:13:12;;;;;;;0.90;0.70;;;;;;;15.08;60.05;99370.03;4438446;32;35876;-84
2022/09/24 07:15:40;;;;;;;1.52;1.42;;;;;;;15.83;58.95;99374.84;4439607;32;34370;-83
2022/09/24 07:18:09;;;;;;;0.85;0.85;;;;;;;14.95;61.91;99376.56;4439617;32;33404;-84
2022/09/24 07:20:38;;;;;;;0.93;0.85;;;;;;;16.20;58.15;99378.03;4451224;32;33809;-83
2022/09/24 07:23:08;;;;;;;0.85;0.85;;;;;;;16.70;57.17;99382.47;4437528;32;35164;-83
2022/09/24 07:25:36;;;;;;;1.98;1.67;;;;;;;16.22;57.95;99384.09;4450998;32;34443;-83
2022/09/24 07:28:07;;;;;;;1.17;1.08;;;;;;;16.82;55.72;99380.28;4439838;32;34110;-83
2022/09/24 07:30:35;;;;;;;1.42;1.33;;;;;;;16.56;55.88;99380.34;4438570;32;33211;-83
2022/09/24 07:33:04;;;;;;;1.65;1.55;;;;;;;15.51;60.20;99371.41;4438266;32;35827;-83
2022/09/24 07:35:33;;;;;;;1.27;1.17;;;;;;;15.30;60.01;99388.66;4439583;32;33937;-83
2022/09/24 07:38:02;;;;;;;1.98;1.87;;;;;;;15.75;58.19;99389.97;4439509;32;33320;-83
2022/09/24 07:40:31;;;;;;;1.08;1.08;;;;;;;15.40;58.94;99388.38;4451072;32;33922;-83
2022/09/24 07:42:59;;;;;;;1.20;1.10;;;;;;;15.82;54.62;99391.50;4450598;32;35060;-84
2022/09/24 07:45:28;;;;;;;3.37;1.48;;;;;;;15.97;55.96;99395.41;4439400;32;34518;-83
2022/09/24 07:48:01;;;;;;;2.25;2.05;;;;;;;15.67;53.80;99398.06;4439384;32;34212;-84
2022/09/24 07:50:31;;;;;;;2.50;1.48;;;;;;;16.26;51.70;99396.22;4451055;32;34735;-84
2022/09/24 07:52:59;;;;;;;2.22;2.10;;;;;;;16.65;49.26;99408.94;4439660;32;35029;-82
2022/09/24 07:55:27;;;;;;;4.75;2.20;;;;;;;16.31;51.55;99399.56;4438282;32;35068;-82
2022/09/24 07:57:56;;;;;;;1.25;1.15;;;;;;;16.25;51.08;99394.50;4439437;32;34427;-81
2022/09/24 08:00:24;;;;;;;2.58;1.73;;;;;;;15.29;56.46;99396.56;4439376;32;33963;-83
2022/09/24 08:02:55;;;;;;;7.37;3.35;;;;;;;15.63;55.58;99391.16;4439289;32;35097;-81
2022/09/24 08:05:22;;;;;;;0.90;0.90;;;;;;;15.83;56.14;99394.97;4438280;32;34413;-83
2022/09/24 08:07:52;;;;;;;2.40;1.98;;;;;;;16.51;52.89;99390.16;4439311;32;33690;-83
2022/09/24 08:10:21;;;;;;;3.15;0.60;;;;;;;16.43;51.71;99386.00;4438148;32;33256;-83
2022/09/24 08:12:49;;;;;;;2.00;1.85;;;;;;;16.83;51.71;99386.38;4450883;32;36005;-81
2022/09/24 08:15:18;;;;;;;1.73;1.62;;;;;;;16.38;54.73;99385.31;4438103;32;34478;-81
2022/09/24 08:17:46;;;;;;;1.83;1.42;;;;;;;16.61;52.79;99383.66;4439281;32;34395;-82
2022/09/24 08:20:13;;;;;;;5.68;2.47;;;;;;;16.81;53.20;99380.31;4439151;32;34685;-83
2022/09/24 08:22:41;;;;;;;0.62;0.62;;;;;;;16.42;53.41;99386.91;4439277;32;35149;-84
2022/09/24 08:25:09;;;;;;;0.98;0.85;;;;;;;17.48;49.16;99382.25;4439285;32;34426;-83
2022/09/24 08:27:37;;;;;;;1.75;1.65;;;;;;;18.00;46.90;99374.13;4437844;32;33429;-84
2022/09/24 08:30:05;;;;;;;1.60;1.23;;;;;;;17.77;49.28;99370.59;4438025;32;33812;-81
2022/09/24 08:32:33;;;;;;;2.60;2.03;;;;;;;17.53;50.27;99364.50;4437844;32;36130;-83
2022/09/24 08:35:01;;;;;;;1.00;1.00;;;;;;;18.02;49.32;99363.50;4439150;32;35321;-81
2022/09/24 08:37:29;;;;;;;0.70;0.70;;;;;;;17.65;48.39;99357.03;4437863;32;31816;-82
2022/09/24 08:39:57;;;;;;;3.15;2.72;;;;;;;18.34;46.25;99357.75;4439109;32;33925;-83
2022/09/24 08:42:27;;;;;;;1.70;1.60;;;;;;;18.88;46.10;99362.50;4438935;32;35876;-84
2022/09/24 08:47:44;;;;;;;6.65;1.65;;;;;;;19.39;45.37;99354.91;4450397;32;32267;-83
2022/09/24 08:50:16;;;;;;;1.70;1.15;;;;;;;19.44;41.90;99347.63;4439260;32;34024;-84
2022/09/24 08:52:53;;;;;;;1.48;1.37;;;;;;;18.74;45.15;99353.41;4439154;32;34949;-84
2022/09/24 08:55:33;;;;;;;1.05;0.73;;;;;;;18.98;45.17;99355.03;4437990;32;35183;-84
2022/09/24 08:58:16;;;;;;;1.98;1.55;;;;;;;19.23;42.85;99350.34;4437739;32;33034;-82
2022/09/24 09:01:08;;;;;;;1.42;1.27;;;;;;;19.47;43.27;99369.47;4438836;32;33566;-82
2022/09/24 09:03:46;;;;;;;3.22;2.17;;;;;;;19.48;44.87;99371.19;4439086;32;35943;-82
2022/09/24 09:06:23;;;;;;;1.55;1.33;;;;;;;18.41;46.35;99360.13;4450201;32;35050;-82
2022/09/24 09:09:10;;;;;;;1.02;1.00;;;;;;;18.72;45.31;99347.34;4438736;32;33350;-83
2022/09/24 09:11:39;;;;;;;1.70;1.60;;;;;;;19.43;43.74;99346.78;4437656;32;34840;-82
2022/09/24 09:14:11;;;;;;;1.45;1.27;;;;;;;19.54;43.43;99350.72;4437332;32;35773;-82
2022/09/24 09:16:51;;;;;;;2.33;1.52;;;;;;;19.30;44.16;99340.34;4438680;32;34514;-83
2022/09/24 09:19:24;;;;;;;1.70;1.58;;;;;;;18.70;44.25;99335.12;4424902;32;33439;-83
2022/09/24 09:22:13;;;;;;;2.42;2.22;;;;;;;18.84;47.53;99340.66;4437436;32;33251;-82
2022/09/24 09:24:47;;;;;;;0.68;0.50;;;;;;;19.27;46.01;99338.72;4438576;32;34934;-84
2022/09/24 09:27:16;;;;;;;1.02;1.02;;;;;;;20.12;42.63;99334.69;4437401;32;34839;-82
2022/09/24 09:29:48;;;;;;;1.60;1.50;;;;;;;20.30;43.19;99337.34;4449961;32;34098;-83
2022/09/24 09:32:32;;;;;;;1.87;1.70;;;;;;;19.83;43.57;99338.75;4438354;32;33939;-81
2022/09/24 09:35:18;;;;;;;0.70;0.60;;;;;;;20.74;41.28;99336.84;4438366;32;34924;-82
2022/09/24 09:38:18;;;;;;;2.05;0.80;;;;;;;20.07;43.44;99331.41;4438356;32;34607;-83
2022/09/24 09:40:56;;;;;;;1.45;1.27;;;;;;;20.74;44.05;99326.28;4431403;32;33234;-83
2022/09/24 09:43:25;;;;;;;2.58;2.37;;;;;;;20.91;41.01;99315.63;4438206;32;34877;-84
2022/09/24 09:46:10;;;;;;;0.85;0.85;;;;;;;20.90;43.00;99321.00;4438079;32;35987;-83
2022/09/24 09:48:44;;;;;;;2.05;0.70;;;;;;;21.44;41.28;99323.34;4436724;32;35357;-83
2022/09/24 09:51:24;;;;;;;0.65;0.65;;;;;;;21.53;41.45;99330.81;4438196;32;33442;-82
2022/09/24 09:53:59;;;;;;;1.12;1.02;;;;;;;21.14;44.17;99324.97;4424277;32;34032;-81
2022/09/24 09:56:49;;;;;;;1.40;1.07;;;;;;;21.71;40.41;99326.28;4438145;32;35026;-83
2022/09/24 09:59:20;;;;;;;14.18;0.60;;;;;;;20.22;44.45;99330.66;4437974;32;34486;-83
2022/09/24 10:01:56;;;;;;;1.65;1.33;;;;;;;20.75;42.44;99327.97;4436913;32;33117;-81
2022/09/24 10:04:38;;;;;;;1.15;1.05;;;;;;;20.17;44.96;99331.78;4437946;32;34194;-83
2022/09/24 10:07:08;;;;;;;0.70;0.70;;;;;;;20.03;44.93;99319.25;4450290;32;35016;-83
2022/09/24 10:09:37;;;;;;;0.60;0.60;;;;;;;19.94;43.91;99325.00;4440138;32;34477;-83
2022/09/24 10:12:13;;;;;;;0.62;0.62;;;;;;;20.09;42.11;99318.97;4451760;32;34217;-84
2022/09/24 10:14:42;;;;;;;0.70;0.47;;;;;;;20.00;43.98;99314.16;4451705;32;33815;-82
2022/09/24 10:17:17;;;;;;;0.43;0.43;;;;;;;20.48;44.09;99309.94;4439945;32;35902;-82
2022/09/24 10:19:46;;;;;;;0.47;0.47;;;;;;;20.57;43.83;99306.78;4439015;32;34497;-82
2022/09/24 10:22:24;;;;;;;0.20;0.20;;;;;;;20.77;42.13;99305.78;4438924;32;33519;-82
2022/09/24 10:24:53;;;;;;;0.30;0.30;;;;;;;20.43;44.13;99301.38;4440006;32;33924;-83
2022/09/24 10:27:41;;;;;;;0.82;0.82;;;;;;;20.64;43.09;99300.28;4451475;32;34608;-83
2022/09/24 10:30:32;;;;;;;0.70;0.70;;;;;;;21.21;44.20;99293.69;4440045;32;34475;-83
2022/09/24 10:33:02;;;;;;;1.25;1.15;;;;;;;21.21;42.93;99297.22;4449892;32;33540;-84
2022/09/24 10:35:34;;;;;;;0.40;0.40;;;;;;;21.82;39.78;99288.56;4438540;32;35310;-83
2022/09/24 10:38:15;;;;;;;0.47;0.47;;;;;;;21.30;39.77;99285.25;4439849;32;36032;-82
2022/09/24 10:40:43;;;;;;;0.30;0.30;;;;;;;21.57;38.87;99279.38;4439424;32;34339;-84
2022/09/24 10:43:19;;;;;;;0.95;0.60;;;;;;;22.20;41.53;99272.19;4438871;32;33153;-84
2022/09/24 10:46:22;;;;;;;0.50;0.50;;;;;;;22.20;36.64;99278.34;4437360;32;34879;-83
2022/09/24 10:49:21;;;;;;;0.40;0.40;;;;;;;21.55;37.12;99294.50;4438326;32;35066;-83
2022/09/24 10:52:07;;;;;;;5.12;0.80;;;;;;;22.06;36.71;99280.94;4415602;32;34521;-83
2022/09/24 10:54:42;;;;;;;0.35;0.35;;;;;;;20.98;36.40;99285.25;4451244;32;33513;-83
2022/09/24 10:57:27;;;;;;;0.60;0.55;;;;;;;21.69;36.42;99283.97;4439836;32;34042;-83
2022/09/24 11:00:06;;;;;;;1.75;0.52;;;;;;;22.28;36.51;99273.47;4413370;32;35113;-82
2022/09/24 11:02:44;;;;;;;1.65;0.90;;;;;;;22.33;34.47;99284.66;4439823;32;34538;-83
2022/09/24 11:05:18;;;;;;;0.40;0.40;;;;;;;22.27;35.00;99273.53;4438599;32;31952;-85
2022/09/24 11:07:59;;;;;;;0.40;0.40;;;;;;;21.83;36.52;99284.94;4439736;32;34828;-83
2022/09/24 11:10:38;;;;;;;0.35;0.35;;;;;;;22.21;35.70;99265.94;4439614;32;35092;-84
2022/09/24 11:13:22;;;;;;;1.08;0.68;;;;;;;21.55;35.85;99268.84;4450646;32;34826;-82
2022/09/24 11:16:07;;;;;;;0.30;0.30;;;;;;;21.78;37.12;99272.00;4454954;32;33503;-83
2022/09/24 11:19:01;;;;;;;1.35;0.90;;;;;;;22.05;35.54;99263.34;4454477;32;33916;-82
2022/09/24 11:21:56;;;;;;;0.52;0.52;;;;;;;22.77;34.80;99260.81;4441043;32;35142;-83
2022/09/24 11:24:39;;;;;;;0.85;0.70;;;;;;;22.55;33.96;99253.31;4454862;32;33332;-82
2022/09/24 11:27:34;;;;;;;0.22;0.22;;;;;;;23.43;33.49;99254.78;4453656;32;33447;-83
2022/09/24 11:30:08;;;;;;;0.40;0.40;;;;;;;23.32;34.02;99254.66;4454724;32;34835;-82
2022/09/24 11:33:03;;;;;;;0.60;0.43;;;;;;;22.91;34.31;99248.34;4440878;32;35353;-82
2022/09/24 11:35:50;;;;;;;0.68;0.60;;;;;;;;;;4454773;32;34609;-82
2022/09/24 11:38:44;;;;;;;0.47;0.47;;;;;;;22.55;33.85;99238.22;4454840;32;33710;-81
2022/09/24 11:41:43;;;;;;;0.70;0.70;;;;;;;22.77;32.29;99229.78;4453742;32;34587;-84
2022/09/24 11:44:43;;;;;;;0.40;0.40;;;;;;;22.23;34.14;99240.19;4454692;32;35065;-81
2022/09/24 11:47:25;;;;;;;0.30;0.30;;;;;;;21.67;35.36;99243.47;4428479;32;34536;-82
2022/09/24 11:50:27;;;;;;;0.40;0.40;;;;;;;22.02;35.07;99239.66;4454861;32;33504;-80
2022/09/24 11:52:58;;;;;;;0.47;0.37;;;;;;;22.10;33.77;99235.59;4454710;32;34837;-82
2022/09/24 11:55:33;;;;;;;0.40;0.40;;;;;;;21.48;37.68;99232.22;4453709;32;35126;-82
2022/09/24 11:58:17;;;;;;;0.20;0.20;;;;;;;20.85;37.94;99239.19;4453816;32;34348;-81
2022/09/24 12:01:02;;;;;;;0.50;0.50;;;;;;;21.37;37.74;99235.41;4454898;32;34385;-83
2022/09/24 12:03:42;;;;;;;0.45;0.45;;;;;;;21.85;37.58;99233.56;4454854;32;34837;-81
2022/09/24 12:06:14;;;;;;;0.65;0.65;;;;;;;21.38;37.01;99222.09;4454661;32;35261;-81
2022/09/24 12:09:00;;;;;;;0.30;0.30;;;;;;;20.73;38.87;99224.84;4453656;32;34543;-82
2022/09/24 12:11:35;;;;;;;0.50;0.50;;;;;;;20.86;37.76;99225.03;4453728;32;34276;-82